createdAt,value
2022-09-01T00:01:39.381Z,0.40
2022-09-01T00:04:10.097Z,0.68
2022-09-01T00:06:41.003Z,0.52
2022-09-01T00:09:16.431Z,0.40
2022-09-01T00:11:50.501Z,0.50
2022-09-01T00:14:30.307Z,0.50
2022-09-01T00:17:01.411Z,0.43
2022-09-01T00:19:29.836Z,0.50
2022-09-01T00:21:57.527Z,0.40
2022-09-01T00:24:26.450Z,0.35
2022-09-01T00:26:54.461Z,0.50
2022-09-01T00:29:22.246Z,0.30
2022-09-01T00:31:49.933Z,0.55
2022-09-01T00:34:17.822Z,0.50
2022-09-01T00:36:45.575Z,0.35
2022-09-01T00:39:14.780Z,0.40
2022-09-01T00:41:45.120Z,0.50
2022-09-01T00:44:14.243Z,0.50
2022-09-01T00:46:49.761Z,0.47
2022-09-01T00:49:24.061Z,0.40
2022-09-01T00:51:52.693Z,0.40
2022-09-01T00:54:21.564Z,0.40
2022-09-01T00:56:49.724Z,0.40
2022-09-01T00:59:25.318Z,0.50
2022-09-01T01:01:53.578Z,0.50
2022-09-01T01:04:21.340Z,0.50
2022-09-01T01:06:50.794Z,0.40
2022-09-01T01:09:18.829Z,0.40
2022-09-01T01:11:47.742Z,0.40
2022-09-01T01:14:17.446Z,0.40
2022-09-01T01:16:46.090Z,0.60
2022-09-01T01:19:52.615Z,0.40
2022-09-01T01:22:40.640Z,0.40
2022-09-01T01:25:08.407Z,0.40
2022-09-01T01:27:43.043Z,0.40
2022-09-01T01:30:11.972Z,0.30
2022-09-01T01:32:43.869Z,0.45
2022-09-01T01:35:15.155Z,0.52
2022-09-01T01:37:45.906Z,0.33
2022-09-01T01:40:17.159Z,0.40
2022-09-01T01:42:48.247Z,0.50
2022-09-01T01:45:17.419Z,0.60
2022-09-01T01:47:47.584Z,0.40
2022-09-01T01:50:15.858Z,0.40
2022-09-01T01:52:45.476Z,0.45
2022-09-01T01:55:13.439Z,0.40
2022-09-01T01:57:48.938Z,0.40
2022-09-01T02:00:19.669Z,0.50
2022-09-01T02:02:56.625Z,0.53
2022-09-01T02:05:25.617Z,0.70
2022-09-01T02:07:56.081Z,0.63
2022-09-01T02:10:24.808Z,0.57
2022-09-01T02:12:52.556Z,0.45
2022-09-01T02:15:20.719Z,0.80
2022-09-01T02:17:49.031Z,0.70
2022-09-01T02:20:16.800Z,0.60
2022-09-01T02:22:44.854Z,0.70
2022-09-01T02:25:16.796Z,0.70
2022-09-01T02:27:44.573Z,0.60
2022-09-01T02:30:12.964Z,0.45
2022-09-01T02:32:42.044Z,0.73
2022-09-01T02:35:10.262Z,0.60
2022-09-01T02:37:39.567Z,0.43
2022-09-01T02:40:10.301Z,0.50
2022-09-01T02:42:41.089Z,0.50
2022-09-01T02:45:12.174Z,0.70
2022-09-01T02:47:42.222Z,0.60
2022-09-01T02:50:13.987Z,0.50
2022-09-01T02:52:42.030Z,0.50
2022-09-01T02:55:09.871Z,0.70
2022-09-01T02:57:37.598Z,0.50
2022-09-01T03:00:20.876Z,0.63
2022-09-01T03:02:51.582Z,0.47
2022-09-01T03:05:28.846Z,0.60
2022-09-01T03:07:58.088Z,0.70
2022-09-01T03:10:48.629Z,0.50
2022-09-01T03:13:17.142Z,0.70
2022-09-01T03:15:44.832Z,0.35
2022-09-01T03:18:12.984Z,0.60
2022-09-01T03:20:43.594Z,0.50
2022-09-01T03:23:12.953Z,0.85
2022-09-01T03:25:40.713Z,0.60
2022-09-01T03:28:09.323Z,0.50
2022-09-01T03:30:40.214Z,0.60
2022-09-01T03:33:08.024Z,0.60
2022-09-01T03:35:35.821Z,0.50
2022-09-01T03:38:04.171Z,0.50
2022-09-01T03:40:32.919Z,0.60
2022-09-01T03:43:01.002Z,0.50
2022-09-01T03:45:29.730Z,0.50
2022-09-01T03:47:57.454Z,0.60
2022-09-01T03:50:25.740Z,0.60
2022-09-01T03:52:54.615Z,0.55
2022-09-01T03:55:23.524Z,0.50
2022-09-01T03:57:51.776Z,0.50
2022-09-01T04:00:23.549Z,0.50
2022-09-01T04:02:56.138Z,0.80
2022-09-01T04:05:28.612Z,0.70
2022-09-01T04:08:04.491Z,0.50
2022-09-01T04:10:38.454Z,0.50
2022-09-01T04:13:06.240Z,0.60
2022-09-01T04:15:34.395Z,0.60
2022-09-01T04:18:09.995Z,0.60
2022-09-01T04:20:56.974Z,0.88
2022-09-01T04:23:33.665Z,0.68
2022-09-01T04:26:13.283Z,0.70
2022-09-01T04:28:46.089Z,0.70
2022-09-01T04:31:19.220Z,0.52
2022-09-01T04:33:47.617Z,0.77
2022-09-01T04:36:19.670Z,0.70
2022-09-01T04:38:47.888Z,0.70
2022-09-01T04:41:20.382Z,0.70
2022-09-01T04:43:48.362Z,0.77
2022-09-01T04:46:16.491Z,0.88
2022-09-01T04:48:46.015Z,0.80
2022-09-01T04:51:15.574Z,1.00
2022-09-01T04:53:48.931Z,0.90
2022-09-01T04:56:19.616Z,0.80
2022-09-01T04:58:48.021Z,0.70
2022-09-01T05:01:16.588Z,0.68
2022-09-01T05:03:45.431Z,0.80
2022-09-01T05:06:14.028Z,0.70
2022-09-01T05:08:42.174Z,0.70
2022-09-01T05:11:14.925Z,0.70
2022-09-01T05:13:43.621Z,0.70
2022-09-01T05:16:13.415Z,0.80
2022-09-01T05:18:42.345Z,0.80
2022-09-01T05:21:11.102Z,0.90
2022-09-01T05:23:40.600Z,0.80
2022-09-01T05:26:17.133Z,0.88
2022-09-01T05:28:45.418Z,0.90
2022-09-01T05:31:13.198Z,1.10
2022-09-01T05:33:46.172Z,0.90
2022-09-01T05:36:14.872Z,0.75
2022-09-01T05:38:42.722Z,0.88
2022-09-01T05:41:11.375Z,0.80
2022-09-01T05:43:39.525Z,0.85
2022-09-01T05:46:08.717Z,1.13
2022-09-01T05:48:40.397Z,0.80
2022-09-01T05:51:22.241Z,0.90
2022-09-01T05:53:59.002Z,1.10
2022-09-01T05:56:27.215Z,0.90
2022-09-01T05:59:26.618Z,0.85
2022-09-01T06:01:48.180Z,0.93
2022-09-01T06:04:17.869Z,1.00
2022-09-01T06:07:04.135Z,1.03
2022-09-01T06:09:34.614Z,1.00
2022-09-01T06:12:03.166Z,1.00
2022-09-01T06:14:30.811Z,1.00
2022-09-01T06:16:59.129Z,0.93
2022-09-01T06:19:27.021Z,1.00
2022-09-01T06:21:56.975Z,1.00
2022-09-01T06:24:25.002Z,0.98
2022-09-01T06:26:54.992Z,1.10
2022-09-01T06:29:22.719Z,0.88
2022-09-01T06:31:52.932Z,0.70
2022-09-01T06:34:20.781Z,1.05
2022-09-01T06:36:49.676Z,0.90
2022-09-01T06:39:20.449Z,1.00
2022-09-01T06:41:50.886Z,0.80
2022-09-01T06:44:22.591Z,0.80
2022-09-01T06:46:53.421Z,0.60
2022-09-01T06:49:23.796Z,0.75
2022-09-01T06:51:51.895Z,0.70
2022-09-01T06:54:21.249Z,0.82
2022-09-01T06:56:51.761Z,0.67
2022-09-01T06:59:20.790Z,0.75
2022-09-01T07:01:49.449Z,0.80
2022-09-01T07:04:20.401Z,0.70
2022-09-01T07:07:00.216Z,1.05
2022-09-01T07:09:40.346Z,0.60
2022-09-01T07:12:27.889Z,0.73
2022-09-01T07:17:52.507Z,0.60
2022-09-01T07:20:24.483Z,0.80
2022-09-01T07:23:08.396Z,0.90
2022-09-01T07:28:37.597Z,0.60
2022-09-01T07:33:55.696Z,0.70
2022-09-01T07:45:27.301Z,0.70
2022-09-01T07:47:55.983Z,0.63
2022-09-01T07:50:38.617Z,0.80
2022-09-01T07:53:09.476Z,0.90
2022-09-01T07:55:41.526Z,0.95
2022-09-01T07:58:11.993Z,0.70
2022-09-01T08:00:40.290Z,0.80
2022-09-01T08:03:08.145Z,0.80
2022-09-01T08:05:35.884Z,0.80
2022-09-01T08:08:03.773Z,1.02
2022-09-01T08:10:32.219Z,0.90
2022-09-01T08:12:59.869Z,0.80
2022-09-01T08:16:06.765Z,0.67
2022-09-01T08:18:15.600Z,0.60
2022-09-01T08:20:47.557Z,0.63
2022-09-01T08:23:15.997Z,0.60
2022-09-01T08:25:44.412Z,0.60
2022-09-01T08:28:12.630Z,0.75
2022-09-01T08:30:41.165Z,0.77
2022-09-01T08:33:11.826Z,0.70
2022-09-01T08:35:43.399Z,0.60
2022-09-01T08:38:11.209Z,0.65
2022-09-01T08:40:38.989Z,0.60
2022-09-01T08:43:25.968Z,0.63
2022-09-01T08:45:55.267Z,0.60
2022-09-01T08:51:20.274Z,0.70
2022-09-01T08:53:50.887Z,0.75
2022-09-01T08:56:18.893Z,0.77
2022-09-01T08:58:46.600Z,0.70
2022-09-01T09:01:27.637Z,0.70
2022-09-01T09:03:55.494Z,0.70
2022-09-01T09:06:25.653Z,0.80
2022-09-01T09:09:04.070Z,0.80
2022-09-01T09:11:50.492Z,0.55
2022-09-01T09:14:22.024Z,0.60
2022-09-01T09:16:53.128Z,0.57
2022-09-01T09:19:25.012Z,0.60
2022-09-01T09:21:54.190Z,0.80
2022-09-01T09:24:38.620Z,0.60
2022-09-01T09:27:11.084Z,0.60
2022-09-01T09:29:40.830Z,0.68
2022-09-01T09:32:35.510Z,0.70
2022-09-01T09:34:56.945Z,0.70
2022-09-01T09:37:28.854Z,0.52
2022-09-01T09:40:08.593Z,0.70
2022-09-01T09:42:41.343Z,0.60
2022-09-01T09:45:19.362Z,0.73
2022-09-01T09:47:47.079Z,0.90
2022-09-01T09:50:17.908Z,0.80
2022-09-01T09:52:48.008Z,0.85
2022-09-01T09:55:22.222Z,0.85
2022-09-01T09:57:50.837Z,0.70
2022-09-01T10:00:24.028Z,0.73
2022-09-01T10:02:53.216Z,0.60
2022-09-01T10:05:23.656Z,0.60
2022-09-01T10:07:51.420Z,0.90
2022-09-01T10:10:42.267Z,0.95
2022-09-01T10:13:12.413Z,0.60
2022-09-01T10:15:40.393Z,0.60
2022-09-01T10:18:20.393Z,0.70
2022-09-01T10:21:00.416Z,0.50
2022-09-01T10:23:32.551Z,0.67
2022-09-01T10:26:05.942Z,0.70
2022-09-01T10:28:34.243Z,0.50
2022-09-01T10:31:02.622Z,0.60
2022-09-01T10:33:31.390Z,0.63
2022-09-01T10:35:59.121Z,0.60
2022-09-01T10:38:28.222Z,1.08
2022-09-01T10:41:14.285Z,0.60
2022-09-01T10:43:46.448Z,0.60
2022-09-01T10:46:26.152Z,0.88
2022-09-01T10:48:55.756Z,0.63
2022-09-01T10:51:28.854Z,0.70
2022-09-01T10:54:05.734Z,0.65
2022-09-01T10:56:50.740Z,0.60
2022-09-01T10:59:43.484Z,0.65
2022-09-01T11:02:34.932Z,0.70
2022-09-01T11:05:01.052Z,0.75
2022-09-01T11:07:50.420Z,0.50
2022-09-01T11:10:34.376Z,0.68
2022-09-01T11:13:02.417Z,0.65
2022-09-01T11:15:37.400Z,0.60
2022-09-01T11:18:08.869Z,0.52
2022-09-01T11:20:39.843Z,0.70
2022-09-01T11:23:28.016Z,0.50
2022-09-01T11:26:20.650Z,0.50
2022-09-01T11:28:48.592Z,0.70
2022-09-01T11:31:42.340Z,0.60
2022-09-01T11:34:20.173Z,0.70
2022-09-01T11:36:54.946Z,0.50
2022-09-01T11:39:30.320Z,0.70
2022-09-01T11:42:09.702Z,0.50
2022-09-01T11:44:40.515Z,0.68
2022-09-01T11:47:16.744Z,0.60
2022-09-01T11:49:48.571Z,0.50
2022-09-01T11:52:16.999Z,0.50
2022-09-01T11:54:46.859Z,0.80
2022-09-01T11:57:26.575Z,0.50
2022-09-01T11:59:54.445Z,0.80
2022-09-01T12:02:23.576Z,0.73
2022-09-01T12:04:51.958Z,0.60
2022-09-01T12:07:27.264Z,0.80
2022-09-01T12:09:55.498Z,0.70
2022-09-01T12:12:28.101Z,1.23
2022-09-01T12:15:10.683Z,0.70
2022-09-01T12:17:41.502Z,0.80
2022-09-01T12:20:32.581Z,0.60
2022-09-01T12:23:00.871Z,0.77
2022-09-01T12:25:29.597Z,0.85
2022-09-01T12:27:57.775Z,0.75
2022-09-01T12:30:25.444Z,0.75
2022-09-01T12:33:22.905Z,0.67
2022-09-01T12:35:41.345Z,0.60
2022-09-01T12:38:21.269Z,0.70
2022-09-01T12:40:50.183Z,1.00
2022-09-01T12:43:38.913Z,0.88
2022-09-01T12:46:06.839Z,0.80
2022-09-01T12:48:35.673Z,0.85
2022-09-01T12:51:30.897Z,0.90
2022-09-01T12:54:00.650Z,0.80
2022-09-01T12:56:32.989Z,0.90
2022-09-01T12:59:09.608Z,0.80
2022-09-01T13:01:42.129Z,1.00
2022-09-01T13:04:17.441Z,0.90
2022-09-01T13:06:45.187Z,0.80
2022-09-01T13:09:12.935Z,0.75
2022-09-01T13:14:30.269Z,0.68
2022-09-01T13:16:58.480Z,0.70
2022-09-01T13:19:28.783Z,0.70
2022-09-01T13:21:58.461Z,0.60
2022-09-01T13:24:30.179Z,0.50
2022-09-01T13:29:47.595Z,0.60
2022-09-01T13:32:19.223Z,0.70
2022-09-01T13:34:49.200Z,0.80
2022-09-01T13:37:18.061Z,0.60
2022-09-01T13:39:47.259Z,0.90
2022-09-01T13:42:16.268Z,0.60
2022-09-01T13:44:44.550Z,0.50
2022-09-01T13:47:29.022Z,0.75
2022-09-01T13:50:14.478Z,0.80
2022-09-01T13:52:44.464Z,0.70
2022-09-01T13:55:13.122Z,0.80
2022-09-01T13:57:40.851Z,0.80
2022-09-01T14:00:12.622Z,0.70
2022-09-01T14:02:49.207Z,0.70
2022-09-01T14:05:17.835Z,0.70
2022-09-01T14:07:45.611Z,0.70
2022-09-01T14:10:14.523Z,0.90
2022-09-01T14:12:42.521Z,0.82
2022-09-01T14:15:13.538Z,0.70
2022-09-01T14:17:44.301Z,0.80
2022-09-01T14:20:13.361Z,0.70
2022-09-01T14:22:41.133Z,0.80
2022-09-01T14:25:09.393Z,0.80
2022-09-01T14:27:37.490Z,0.73
2022-09-01T14:30:08.822Z,0.70
2022-09-01T14:32:36.676Z,0.70
2022-09-01T14:35:04.686Z,0.70
2022-09-01T14:37:32.412Z,0.90
2022-09-01T14:40:00.157Z,0.60
2022-09-01T14:42:29.228Z,0.80
2022-09-01T14:44:56.957Z,0.70
2022-09-01T14:47:25.710Z,0.87
2022-09-01T14:49:53.964Z,0.70
2022-09-01T14:52:22.237Z,0.73
2022-09-01T14:54:50.093Z,0.88
2022-09-01T14:57:37.562Z,0.70
2022-09-01T15:00:15.370Z,0.90
2022-09-01T15:02:43.277Z,1.05
2022-09-01T15:05:11.321Z,0.80
2022-09-01T15:07:39.237Z,0.75
2022-09-01T15:10:07.389Z,0.80
2022-09-01T15:12:35.158Z,1.07
2022-09-01T15:15:02.957Z,0.90
2022-09-01T15:17:30.627Z,1.58
2022-09-01T15:20:21.163Z,1.15
2022-09-01T15:22:49.821Z,1.77
2022-09-01T15:25:17.756Z,1.00
2022-09-01T15:27:46.372Z,1.00
2022-09-01T15:30:18.092Z,1.57
2022-09-01T15:32:46.089Z,1.30
2022-09-01T15:35:14.281Z,1.10
2022-09-01T15:37:42.059Z,1.10
2022-09-01T15:40:10.013Z,1.35
2022-09-01T15:42:38.090Z,1.90
2022-09-01T15:45:06.989Z,2.05
2022-09-01T15:47:34.733Z,1.35
2022-09-01T15:50:03.779Z,1.25
2022-09-01T15:52:34.331Z,0.80
2022-09-01T15:55:02.115Z,1.00
2022-09-01T15:57:29.855Z,0.90
2022-09-01T15:59:58.474Z,2.15
2022-09-01T16:02:27.376Z,2.10
2022-09-01T16:04:57.204Z,1.60
2022-09-01T16:07:26.593Z,1.15
2022-09-01T16:09:58.163Z,1.23
2022-09-01T16:12:26.727Z,1.25
2022-09-01T16:14:55.356Z,1.95
2022-09-01T16:17:41.650Z,1.52
2022-09-01T16:20:11.321Z,1.30
2022-09-01T16:22:40.403Z,2.13
2022-09-01T16:25:16.435Z,1.33
2022-09-01T16:27:44.748Z,1.53
2022-09-01T16:30:13.540Z,1.20
2022-09-01T16:32:43.408Z,1.00
2022-09-01T16:35:11.070Z,1.15
2022-09-01T16:37:45.011Z,0.80
2022-09-01T16:40:21.907Z,0.95
2022-09-01T16:42:57.984Z,1.48
2022-09-01T16:45:31.855Z,0.80
2022-09-01T16:48:02.420Z,0.60
2022-09-01T16:50:45.173Z,0.80
2022-09-01T16:53:15.923Z,0.60
2022-09-01T16:55:43.582Z,0.70
2022-09-01T16:58:22.699Z,0.80
2022-09-01T17:01:09.355Z,0.90
2022-09-01T17:03:47.510Z,0.70
2022-09-01T17:06:17.891Z,1.00
2022-09-01T17:09:18.123Z,1.27
2022-09-01T17:11:49.438Z,0.60
2022-09-01T17:14:22.240Z,0.80
2022-09-01T17:16:51.301Z,1.02
2022-09-01T17:19:20.542Z,0.60
2022-09-01T17:21:55.339Z,0.70
2022-09-01T17:24:34.899Z,0.65
2022-09-01T17:27:07.853Z,0.70
2022-09-01T17:29:45.052Z,0.68
2022-09-01T17:32:30.881Z,0.60
2022-09-01T17:35:17.555Z,0.63
2022-09-01T17:37:58.281Z,0.70
2022-09-01T17:40:29.012Z,0.73
2022-09-01T17:43:00.272Z,0.57
2022-09-01T17:45:31.408Z,1.27
2022-09-01T17:48:18.587Z,0.60
2022-09-01T17:50:58.023Z,0.80
2022-09-01T17:53:39.420Z,0.80
2022-09-01T17:56:30.800Z,0.75
2022-09-01T17:59:01.488Z,0.73
2022-09-01T18:01:32.700Z,0.80
2022-09-01T18:04:00.663Z,0.70
2022-09-01T18:06:46.002Z,0.68
2022-09-01T18:09:14.604Z,0.60
2022-09-01T18:11:52.161Z,0.70
2022-09-01T18:14:24.175Z,0.52
2022-09-01T18:16:54.920Z,0.77
2022-09-01T18:19:24.273Z,0.60
2022-09-01T18:21:58.524Z,0.50
2022-09-01T18:24:47.279Z,0.60
2022-09-01T18:27:15.065Z,0.60
2022-09-01T18:29:42.816Z,0.70
2022-09-01T18:32:13.271Z,0.57
2022-09-01T18:34:59.619Z,0.80
2022-09-01T18:37:38.442Z,1.00
2022-09-01T18:40:09.247Z,0.80
2022-09-01T18:43:01.833Z,0.90
2022-09-01T18:45:33.588Z,0.80
2022-09-01T18:51:15.179Z,0.80
2022-09-01T18:53:51.138Z,0.90
2022-09-01T18:56:43.200Z,0.80
2022-09-01T18:59:36.503Z,0.90
2022-09-01T19:02:09.906Z,0.88
2022-09-01T19:04:41.213Z,0.67
2022-09-01T19:07:12.425Z,0.80
2022-09-01T19:09:40.165Z,0.60
2022-09-01T19:12:25.465Z,0.80
2022-09-01T19:15:12.256Z,0.90
2022-09-01T19:17:58.691Z,0.75
2022-09-01T19:20:41.724Z,0.60
2022-09-01T19:23:13.874Z,0.80
2022-09-01T19:25:42.037Z,0.70
2022-09-01T19:28:39.872Z,0.80
2022-09-01T19:31:12.381Z,0.70
2022-09-01T19:33:41.419Z,0.70
2022-09-01T19:36:11.090Z,0.80
2022-09-01T19:38:39.622Z,0.70
2022-09-01T19:41:21.130Z,0.93
2022-09-01T19:43:48.776Z,0.60
2022-09-01T19:46:42.367Z,0.70
2022-09-01T19:49:10.096Z,0.73
2022-09-01T19:51:42.564Z,0.60
2022-09-01T19:54:19.976Z,0.70
2022-09-01T19:56:51.884Z,0.80
2022-09-01T19:59:22.840Z,0.60
2022-09-01T20:02:00.685Z,0.80
2022-09-01T20:04:43.740Z,0.70
2022-09-01T20:07:15.502Z,0.68
2022-09-01T20:09:43.265Z,1.35
2022-09-01T20:12:14.584Z,0.70
2022-09-01T20:14:51.776Z,0.80
2022-09-01T20:17:30.496Z,1.35
2022-09-01T20:20:01.614Z,0.80
2022-09-01T20:22:35.506Z,0.80
2022-09-01T20:25:10.671Z,0.70
2022-09-01T20:27:38.402Z,0.80
2022-09-01T20:30:07.563Z,0.63
2022-09-01T20:32:45.673Z,0.88
2022-09-01T20:35:14.946Z,0.75
2022-09-01T20:37:46.982Z,0.75
2022-09-01T20:40:17.133Z,0.60
2022-09-01T20:43:00.214Z,0.60
2022-09-01T20:45:28.932Z,0.70
2022-09-01T20:47:57.987Z,0.73
2022-09-01T20:50:32.678Z,0.70
2022-09-01T20:53:00.410Z,0.68
2022-09-01T20:55:38.529Z,0.70
2022-09-01T20:58:12.633Z,0.73
2022-09-01T21:01:13.137Z,0.70
2022-09-01T21:03:56.731Z,0.80
2022-09-01T21:06:30.483Z,0.80
2022-09-01T21:09:05.522Z,0.70
2022-09-01T21:11:39.577Z,0.60
2022-09-01T21:14:19.372Z,0.87
2022-09-01T21:16:51.953Z,0.65
2022-09-01T21:19:25.635Z,0.88
2022-09-01T21:21:56.117Z,0.60
2022-09-01T21:24:23.858Z,0.68
2022-09-01T21:26:52.264Z,0.60
2022-09-01T21:29:22.858Z,1.40
2022-09-01T21:31:50.575Z,1.87
2022-09-01T21:34:18.295Z,1.58
2022-09-01T21:36:45.975Z,1.02
2022-09-01T21:39:14.789Z,1.00
2022-09-01T21:41:42.530Z,0.88
2022-09-01T21:44:10.278Z,0.73
2022-09-01T21:46:37.992Z,0.73
2022-09-01T21:49:05.770Z,1.45
2022-09-01T21:51:33.991Z,1.60
2022-09-01T21:54:01.794Z,2.83
2022-09-01T21:56:29.949Z,3.03
2022-09-01T21:58:59.498Z,2.30
2022-09-01T22:01:31.246Z,1.90
2022-09-01T22:03:59.334Z,0.97
2022-09-01T22:06:27.352Z,0.85
2022-09-01T22:08:55.057Z,0.73
2022-09-01T22:11:22.883Z,0.50
2022-09-01T22:13:50.702Z,0.63
2022-09-01T22:16:19.047Z,0.70
2022-09-01T22:18:47.418Z,0.80
2022-09-01T22:21:15.369Z,0.57
2022-09-01T22:23:43.350Z,0.50
2022-09-01T22:26:15.418Z,0.50
2022-09-01T22:28:43.533Z,0.70
2022-09-01T22:31:14.867Z,0.70
2022-09-01T22:33:42.691Z,0.63
2022-09-01T22:36:10.443Z,0.70
2022-09-01T22:38:38.170Z,0.80
2022-09-01T22:41:05.947Z,0.65
2022-09-01T22:43:33.822Z,0.60
2022-09-01T22:46:01.586Z,0.70
2022-09-01T22:48:29.623Z,0.80
2022-09-01T22:50:57.587Z,0.70
2022-09-01T22:53:25.349Z,0.90
2022-09-01T22:55:53.204Z,0.75
2022-09-01T22:58:20.975Z,0.70
2022-09-01T23:00:49.900Z,0.80
2022-09-01T23:03:17.881Z,2.05
2022-09-01T23:05:45.873Z,0.80
2022-09-01T23:08:13.632Z,0.70
2022-09-01T23:10:41.359Z,0.70
2022-09-01T23:13:09.121Z,0.63
2022-09-01T23:15:36.778Z,0.80
2022-09-01T23:18:04.576Z,0.87
2022-09-01T23:20:32.222Z,0.70
2022-09-01T23:22:59.938Z,0.60
2022-09-01T23:25:28.053Z,0.60
2022-09-01T23:27:55.888Z,0.70
2022-09-01T23:30:23.550Z,0.60
2022-09-01T23:32:51.284Z,0.70
2022-09-01T23:35:19.061Z,0.70
2022-09-01T23:37:46.803Z,0.55
2022-09-01T23:40:14.571Z,0.65
2022-09-01T23:42:42.521Z,0.80
2022-09-01T23:45:10.515Z,0.80
2022-09-01T23:47:38.161Z,0.70
2022-09-01T23:50:06.200Z,0.75
2022-09-01T23:52:34.733Z,0.70
2022-09-01T23:55:02.512Z,0.73
2022-09-01T23:57:30.147Z,0.70
2022-09-01T23:59:57.977Z,0.50
